Time;durP1;ratioP1;P1;durP2;ratioP2;P2;SDS_P1;SDS_P2;PMS_P1;PMS_P2;Temp;Humidity;BMP_temperature;BMP_pressure;BME280_temperature;BME280_humidity;BME280_pressure;Samples;Min_cycle;Max_cycle;Signal;HPM_P1;HPM_P2
2022/08/21 00:01:55;;;;;;;11.48;2.72;;;13.80;93.10;;;;;;4897611;29;20025;-69
2022/08/21 00:04:22;;;;;;;9.65;2.65;;;13.80;93.10;;;;;;4897421;29;20027;-69
2022/08/21 00:06:51;;;;;;;9.18;2.47;;;13.90;93.10;;;;;;4897543;29;20111;-71
2022/08/21 00:09:19;;;;;;;9.93;3.25;;;14.00;92.60;;;;;;4897509;29;20017;-67
2022/08/21 00:11:48;;;;;;;8.10;2.45;;;14.00;92.60;;;;;;4897412;29;20024;-68
2022/08/21 00:14:16;;;;;;;9.63;2.83;;;14.00;92.60;;;;;;4897428;29;20024;-68
2022/08/21 00:16:44;;;;;;;9.65;2.28;;;14.10;92.60;;;;;;4897575;29;20033;-71
2022/08/21 00:19:12;;;;;;;9.13;2.70;;;14.10;92.40;;;;;;4897223;29;20059;-68
2022/08/21 00:21:39;;;;;;;6.05;1.83;;;14.10;92.40;;;;;;4897066;29;20028;-68
2022/08/21 00:24:07;;;;;;;9.32;1.67;;;14.20;92.10;;;;;;4897218;29;20024;-69
2022/08/21 00:26:34;;;;;;;9.65;1.83;;;14.30;91.40;;;;;;4895002;29;20032;-70
2022/08/21 00:29:02;;;;;;;8.32;2.13;;;14.30;91.00;;;;;;4895992;29;20496;-69
2022/08/21 00:31:29;;;;;;;13.15;4.45;;;14.40;91.00;;;;;;4895383;29;20060;-71
2022/08/21 00:33:56;;;;;;;6.22;1.70;;;14.40;91.30;;;;;;4896342;29;20104;-68
2022/08/21 00:36:23;;;;;;;9.27;1.88;;;14.40;91.30;;;;;;4895956;29;20036;-70
2022/08/21 00:38:51;;;;;;;6.53;1.45;;;14.50;91.10;;;;;;4896442;29;20051;-70
2022/08/21 00:41:18;;;;;;;7.38;1.35;;;14.50;91.00;;;;;;4896382;29;20446;-70
2022/08/21 00:43:46;;;;;;;6.90;1.40;;;14.50;91.20;;;;;;4896441;29;20176;-70
2022/08/21 00:46:13;;;;;;;7.25;1.70;;;14.60;91.10;;;;;;4895813;29;20084;-71
2022/08/21 00:48:41;;;;;;;4.88;1.70;;;14.80;90.80;;;;;;4896840;29;20509;-70
2022/08/21 00:51:25;;;;;;;4.65;1.50;;;14.90;90.70;;;;;;4896867;29;20033;-70
2022/08/21 00:53:57;;;;;;;6.75;1.17;;;15.00;90.40;;;;;;4896152;29;20329;-69
2022/08/21 00:56:25;;;;;;;5.68;1.10;;;15.10;89.60;;;;;;4896036;29;20112;-69
2022/08/21 00:58:54;;;;;;;3.72;1.20;;;15.20;89.20;;;;;;4893180;29;20049;-69
2022/08/21 01:01:21;;;;;;;8.13;2.92;;;15.30;88.40;;;;;;4895524;29;20497;-69
2022/08/21 01:03:49;;;;;;;8.40;1.85;;;15.30;88.60;;;;;;4893707;29;20032;-69
2022/08/21 01:06:17;;;;;;;2.90;1.30;;;15.40;88.60;;;;;;4911220;29;20057;-70
2022/08/21 01:08:45;;;;;;;5.45;1.10;;;15.40;88.70;;;;;;4895969;29;20040;-70
2022/08/21 01:11:13;;;;;;;3.38;1.02;;;15.50;88.50;;;;;;4896310;29;20028;-74
2022/08/21 01:13:45;;;;;;;3.47;1.02;;;15.60;87.80;;;;;;4896858;29;20165;-69
2022/08/21 01:16:17;;;;;;;4.07;1.20;;;15.70;88.10;;;;;;4896637;29;20040;-71
2022/08/21 01:18:45;;;;;;;5.03;1.50;;;15.80;87.40;;;;;;4896160;29;20112;-71
2022/08/21 01:21:17;;;;;;;2.78;1.00;;;15.90;86.60;;;;;;4896040;29;20266;-71
2022/08/21 01:23:48;;;;;;;3.67;1.38;;;16.00;86.70;;;;;;4895699;29;20063;-73
2022/08/21 01:26:19;;;;;;;5.45;1.20;;;16.10;85.70;;;;;;4896135;29;20066;-73
2022/08/21 01:29:27;;;;;;;3.35;0.85;;;16.10;85.90;;;;;;4895921;29;20029;-70
2022/08/21 01:31:54;;;;;;;4.78;1.17;;;16.20;84.80;;;;;;4905520;29;20036;-75
2022/08/21 01:34:22;;;;;;;4.57;1.40;;;16.30;85.30;;;;;;4896212;29;20028;-73
2022/08/21 01:36:49;;;;;;;3.97;1.45;;;16.40;83.40;;;;;;4896325;29;20028;-69
2022/08/21 01:39:17;;;;;;;2.67;1.13;;;16.50;83.80;;;;;;4896150;29;20103;-71
2022/08/21 01:41:44;;;;;;;6.97;1.05;;;16.60;83.70;;;;;;4896743;29;20103;-68
2022/08/21 01:44:12;;;;;;;2.47;0.95;;;16.70;83.60;;;;;;4899378;29;20430;-70
2022/08/21 01:46:39;;;;;;;2.92;1.23;;;16.90;84.20;;;;;;4899841;29;20382;-72
2022/08/21 01:49:07;;;;;;;3.60;0.82;;;17.00;83.00;;;;;;4899841;29;20422;-69
2022/08/21 01:51:34;;;;;;;6.90;1.45;;;17.10;81.50;;;;;;4899543;29;20481;-70
2022/08/21 01:54:01;;;;;;;3.47;1.17;;;17.10;83.20;;;;;;4899866;29;20040;-70
2022/08/21 01:56:29;;;;;;;5.00;1.20;;;17.40;82.60;;;;;;4899279;29;20080;-70
2022/08/21 01:58:56;;;;;;;3.47;1.25;;;17.60;81.30;;;;;;4899583;29;20507;-71
2022/08/21 02:01:24;;;;;;;1.75;1.13;;;17.80;80.30;;;;;;4899100;29;20036;-70
2022/08/21 02:03:51;;;;;;;1.90;1.00;;;17.90;80.30;;;;;;4898177;29;20111;-72
2022/08/21 02:06:19;;;;;;;2.92;0.95;;;18.00;78.30;;;;;;4899205;29;20017;-73
2022/08/21 02:08:47;;;;;;;4.13;0.82;;;18.10;78.80;;;;;;4899127;29;20033;-69
2022/08/21 02:11:15;;;;;;;5.32;1.08;;;18.30;78.20;;;;;;4894546;29;20033;-72
2022/08/21 02:13:42;;;;;;;2.45;0.95;;;18.40;78.20;;;;;;4880881;29;20041;-70
2022/08/21 02:16:10;;;;;;;3.92;0.98;;;18.50;77.30;;;;;;4880884;29;20032;-70
2022/08/21 02:18:37;;;;;;;5.68;1.15;;;18.60;77.20;;;;;;4880887;29;20488;-70
2022/08/21 02:21:06;;;;;;;3.00;1.00;;;18.60;76.20;;;;;;4893604;29;20037;-69
2022/08/21 02:23:34;;;;;;;2.20;0.73;;;18.80;77.00;;;;;;4899195;29;20497;-70
2022/08/21 02:26:03;;;;;;;3.45;0.75;;;18.90;76.20;;;;;;4898928;29;20532;-69
2022/08/21 02:28:30;;;;;;;4.00;0.85;;;19.10;76.40;;;;;;4898812;29;20051;-70
2022/08/21 02:30:58;;;;;;;2.67;0.98;;;19.20;75.50;;;;;;4898688;29;20092;-72
2022/08/21 02:33:26;;;;;;;2.42;0.80;;;19.30;75.30;;;;;;4898326;29;20016;-70
2022/08/21 02:35:54;;;;;;;4.43;1.15;;;19.40;74.30;;;;;;4898608;29;20076;-69
2022/08/21 02:38:29;;;;;;;3.15;0.90;;;19.40;74.20;;;;;;4899083;29;20115;-69
2022/08/21 02:40:57;;;;;;;2.28;0.90;;;19.60;73.90;;;;;;4898521;29;20036;-69
2022/08/21 02:43:27;;;;;;;2.60;1.02;;;19.70;74.00;;;;;;4898998;29;20032;-69
2022/08/21 02:45:56;;;;;;;1.58;0.80;;;20.20;72.80;;;;;;4898982;29;20031;-69
2022/08/21 02:48:27;;;;;;;2.10;0.70;;;20.60;72.90;;;;;;4898822;29;20032;-71
2022/08/21 02:51:00;;;;;;;3.67;0.80;;;21.10;70.70;;;;;;4898428;29;20028;-70
2022/08/21 02:53:28;;;;;;;4.38;1.08;;;21.60;71.40;;;;;;4897875;29;20044;-71
2022/08/21 02:55:58;;;;;;;3.35;1.10;;;22.10;67.90;;;;;;4898819;29;20068;-69
2022/08/21 02:58:30;;;;;;;2.03;1.00;;;22.40;68.30;;;;;;4898675;29;20047;-68
2022/08/21 03:00:58;;;;;;;3.03;1.17;;;22.90;66.30;;;;;;4898183;29;20056;-68
2022/08/21 03:03:26;;;;;;;3.38;1.08;;;23.50;65.00;;;;;;4898457;29;20025;-70
2022/08/21 03:05:54;;;;;;;2.95;0.93;;;24.10;65.40;;;;;;4898504;29;20024;-72
2022/08/21 03:08:22;;;;;;;3.63;0.93;;;24.10;63.50;;;;;;4898302;29;20032;-75
2022/08/21 03:10:52;;;;;;;3.58;1.00;;;24.30;62.30;;;;;;4898084;29;20390;-70
2022/08/21 03:13:20;;;;;;;2.55;0.93;;;24.30;64.20;;;;;;4898517;29;20028;-72
2022/08/21 03:15:49;;;;;;;3.25;1.10;;;24.90;62.50;;;;;;4898638;29;20092;-69
2022/08/21 03:18:17;;;;;;;4.38;1.17;;;25.10;61.40;;;;;;4897472;29;20043;-69
2022/08/21 03:20:45;;;;;;;4.10;1.80;;;25.10;60.80;;;;;;4898395;29;20021;-69
2022/08/21 03:23:13;;;;;;;9.57;2.67;;;25.00;59.90;;;;;;4896914;29;20028;-70
2022/08/21 03:25:41;;;;;;;1.65;0.80;;;25.10;60.10;;;;;;4898194;29;20039;-69
2022/08/21 03:28:16;;;;;;;4.30;1.00;;;25.50;58.90;;;;;;4898358;29;20367;-71
2022/08/21 03:30:49;;;;;;;3.33;0.73;;;25.60;57.80;;;;;;4898203;29;20021;-71
2022/08/21 03:33:18;;;;;;;2.03;0.60;;;25.80;59.30;;;;;;4898154;29;20033;-72
2022/08/21 03:35:48;;;;;;;3.05;0.80;;;25.70;57.20;;;;;;4897579;29;20501;-69
2022/08/21 03:38:16;;;;;;;3.85;1.42;;;25.90;57.00;;;;;;4898460;29;20472;-73
2022/08/21 03:40:44;;;;;;;2.97;1.35;;;26.10;57.40;;;;;;4893621;29;20029;-70
2022/08/21 03:43:11;;;;;;;2.67;0.80;;;26.30;57.00;;;;;;4879268;29;20077;-74
2022/08/21 03:45:40;;;;;;;2.95;0.88;;;26.10;56.40;;;;;;4878413;29;20031;-70
2022/08/21 03:48:09;;;;;;;4.38;0.90;;;26.50;55.90;;;;;;4878911;29;20544;-74
2022/08/21 03:50:40;;;;;;;5.20;1.77;;;26.60;55.60;;;;;;4888463;29;20048;-72
2022/08/21 03:53:09;;;;;;;2.70;0.90;;;26.70;55.40;;;;;;4897854;29;20043;-71
2022/08/21 03:55:36;;;;;;;4.72;1.13;;;26.40;55.00;;;;;;4897557;29;20541;-69
2022/08/21 03:58:05;;;;;;;4.20;0.82;;;26.30;55.60;;;;;;4898006;29;20429;-70
2022/08/21 04:00:32;;;;;;;5.15;0.77;;;26.60;55.80;;;;;;4897477;29;20549;-70
2022/08/21 04:03:00;;;;;;;1.75;0.50;;;27.00;54.10;;;;;;4897735;29;20039;-69
2022/08/21 04:05:27;;;;;;;2.75;0.80;;;27.00;53.60;;;;;;4897204;29;20028;-69
2022/08/21 04:08:03;;;;;;;2.72;0.60;;;27.10;52.40;;;;;;4897614;29;20079;-73
2022/08/21 04:10:36;;;;;;;4.00;1.00;;;26.80;51.80;;;;;;4897157;29;20323;-72
2022/08/21 04:13:05;;;;;;;4.85;1.08;;;26.70;53.60;;;;;;4897552;29;20128;-74
2022/08/21 04:15:32;;;;;;;2.22;0.70;;;26.80;53.10;;;;;;4897283;29;20075;-70
2022/08/21 04:17:59;;;;;;;2.30;0.63;;;26.80;52.80;;;;;;4897559;29;20043;-72
2022/08/21 04:20:27;;;;;;;3.75;0.68;;;26.60;53.10;;;;;;4897149;29;20060;-73
2022/08/21 04:22:56;;;;;;;2.75;1.13;;;26.00;53.60;;;;;;4897267;29;20033;-69
2022/08/21 04:25:28;;;;;;;4.43;0.60;;;26.30;53.60;;;;;;4896640;29;20036;-71
2022/08/21 04:27:55;;;;;;;1.98;0.50;;;26.00;53.70;;;;;;4895636;29;20024;-71
2022/08/21 04:30:23;;;;;;;2.83;0.73;;;26.50;54.20;;;;;;4896593;29;20028;-69
2022/08/21 04:32:51;;;;;;;5.05;0.75;;;27.20;52.70;;;;;;4897082;29;20569;-71
2022/08/21 04:35:24;;;;;;;2.42;0.60;;;27.70;51.70;;;;;;4896765;29;20039;-75
2022/08/21 04:37:52;;;;;;;2.92;1.27;;;27.50;51.80;;;;;;4896657;29;20024;-72
2022/08/21 04:40:21;;;;;;;2.83;0.65;;;27.20;51.10;;;;;;4896486;29;20458;-74
2022/08/21 04:42:51;;;;;;;2.63;1.45;;;27.40;50.60;;;;;;4896705;29;20478;-71
2022/08/21 04:45:28;;;;;;;1.70;0.60;;;27.50;51.70;;;;;;4896635;29;20446;-71
2022/08/21 04:47:57;;;;;;;4.55;0.60;;;27.70;50.80;;;;;;4896870;29;20072;-70
2022/08/21 04:50:36;;;;;;;4.50;0.70;;;27.90;50.10;;;;;;4896397;29;20097;-75
2022/08/21 04:53:05;;;;;;;3.17;0.70;;;27.60;50.70;;;;;;4896663;29;20536;-72
2022/08/21 04:55:32;;;;;;;3.50;0.63;;;28.10;50.10;;;;;;4896289;29;20881;-71
2022/08/21 04:58:01;;;;;;;3.72;0.73;;;28.30;49.40;;;;;;4896342;29;20044;-70
2022/08/21 05:00:28;;;;;;;2.40;1.10;;;28.50;49.70;;;;;;4896391;29;20512;-71
2022/08/21 05:02:58;;;;;;;1.95;0.70;;;28.50;49.40;;;;;;4896774;29;20030;-71
2022/08/21 05:05:27;;;;;;;1.88;0.60;;;28.10;49.30;;;;;;4896341;29;20020;-70
2022/08/21 05:07:55;;;;;;;2.00;0.70;;;27.90;50.10;;;;;;4896599;29;20030;-69
2022/08/21 05:10:23;;;;;;;2.33;1.13;;;28.00;49.90;;;;;;4896406;29;20024;-72
2022/08/21 05:12:50;;;;;;;6.93;1.10;;;28.00;53.60;;;;;;4896669;29;20052;-72
2022/08/21 05:15:17;;;;;;;5.72;0.98;;;28.10;55.20;;;;;;4896685;29;20552;-72
2022/08/21 05:17:45;;;;;;;5.55;1.20;;;27.80;55.80;;;;;;4895732;29;20028;-69
2022/08/21 05:20:14;;;;;;;5.18;1.45;;;27.80;56.00;;;;;;4896350;29;20021;-72
2022/08/21 05:22:41;;;;;;;5.53;1.05;;;27.90;56.20;;;;;;4896351;29;20486;-73
2022/08/21 05:25:10;;;;;;;8.23;1.85;;;27.90;56.40;;;;;;4896499;29;20489;-71
2022/08/21 05:27:38;;;;;;;5.63;1.10;;;27.60;56.60;;;;;;4896496;29;20085;-71
2022/08/21 05:30:08;;;;;;;6.95;2.72;;;27.50;57.40;;;;;;4896082;29;20064;-73
2022/08/21 05:32:36;;;;;;;4.57;1.60;;;27.40;57.80;;;;;;4896578;29;20442;-70
2022/08/21 05:35:05;;;;;;;8.55;1.80;;;27.10;57.70;;;;;;4896324;29;20028;-69
2022/08/21 05:37:33;;;;;;;4.88;1.13;;;27.00;58.00;;;;;;4896212;29;20036;-69
2022/08/21 05:40:01;;;;;;;7.07;1.17;;;27.00;57.50;;;;;;4896294;29;20080;-70
2022/08/21 05:42:29;;;;;;;6.95;1.60;;;27.00;57.60;;;;;;4896297;29;20021;-69
2022/08/21 05:44:56;;;;;;;4.88;1.63;;;26.70;58.00;;;;;;4896042;29;20029;-70
2022/08/21 05:47:23;;;;;;;5.40;1.25;;;26.50;58.50;;;;;;4895775;29;20025;-73
2022/08/21 05:49:50;;;;;;;4.32;1.38;;;26.60;58.10;;;;;;4896106;29;20035;-72
2022/08/21 05:52:22;;;;;;;5.45;1.15;;;26.30;58.30;;;;;;4896402;29;20488;-70
2022/08/21 05:54:50;;;;;;;4.57;1.13;;;25.90;59.20;;;;;;4896163;29;20035;-70
2022/08/21 05:57:17;;;;;;;6.38;1.30;;;25.60;60.40;;;;;;4895819;29;20283;-71
2022/08/21 05:59:44;;;;;;;3.88;0.80;;;25.60;60.30;;;;;;4896152;29;20025;-71
2022/08/21 06:02:12;;;;;;;7.97;1.20;;;25.50;60.70;;;;;;4896361;29;20131;-69
2022/08/21 06:04:40;;;;;;;8.23;1.00;;;25.60;60.00;;;;;;4895006;29;20020;-72
2022/08/21 06:07:08;;;;;;;3.63;1.13;;;25.30;60.20;;;;;;4895853;29;20044;-70
2022/08/21 06:09:36;;;;;;;5.30;1.00;;;24.50;61.90;;;;;;4895849;29;20027;-75
2022/08/21 06:12:09;;;;;;;6.32;1.20;;;24.40;63.20;;;;;;4895659;29;20092;-75
2022/08/21 06:14:38;;;;;;;5.05;1.20;;;24.90;62.10;;;;;;4895796;29;20024;-74
2022/08/21 06:17:10;;;;;;;4.20;1.17;;;24.90;61.90;;;;;;4895980;29;20028;-75
2022/08/21 06:19:38;;;;;;;5.55;1.00;;;25.00;62.30;;;;;;4896299;29;20032;-70
2022/08/21 06:22:06;;;;;;;6.00;1.40;;;25.10;62.00;;;;;;4895994;29;20495;-76
2022/08/21 06:24:33;;;;;;;6.57;1.45;;;24.90;62.40;;;;;;4895539;29;20094;-72
2022/08/21 06:27:07;;;;;;;5.05;1.05;;;24.60;62.90;;;;;;4895904;29;20039;-70
2022/08/21 06:29:35;;;;;;;6.55;1.50;;;24.30;63.60;;;;;;4899617;29;20020;-75
2022/08/21 06:32:04;;;;;;;7.35;1.75;;;23.80;64.00;;;;;;4899492;29;20108;-75
2022/08/21 06:34:31;;;;;;;5.40;1.40;;;23.30;64.70;;;;;;4898738;29;20025;-72
2022/08/21 06:36:59;;;;;;;7.22;1.38;;;23.10;66.10;;;;;;4899012;29;20033;-72
2022/08/21 06:39:26;;;;;;;5.05;1.15;;;22.90;66.20;;;;;;4899012;29;20485;-74
2022/08/21 06:41:54;;;;;;;6.60;1.40;;;22.90;66.30;;;;;;4899503;29;20032;-72
2022/08/21 06:44:22;;;;;;;5.65;1.25;;;22.70;66.90;;;;;;4898986;29;20021;-74
2022/08/21 06:46:49;;;;;;;6.00;1.23;;;22.50;67.50;;;;;;4898931;29;20032;-72
2022/08/21 06:49:16;;;;;;;3.35;1.17;;;22.10;68.60;;;;;;4898949;29;20040;-75
2022/08/21 06:51:44;;;;;;;7.15;1.88;;;21.70;69.50;;;;;;4898943;29;20115;-70
2022/08/21 06:54:11;;;;;;;5.22;1.45;;;21.20;70.40;;;;;;4898747;29;20469;-72
2022/08/21 06:56:38;;;;;;;4.25;1.30;;;20.70;71.60;;;;;;4899057;29;20119;-72
2022/08/21 06:59:06;;;;;;;5.78;1.20;;;20.20;72.60;;;;;;4898698;29;20438;-70
2022/08/21 07:01:34;;;;;;;8.02;2.17;;;19.50;74.00;;;;;;4898727;29;20039;-72
2022/08/21 07:04:01;;;;;;;8.10;1.65;;;19.00;75.80;;;;;;4898485;29;20068;-71
2022/08/21 07:06:28;;;;;;;5.40;1.40;;;18.60;77.30;;;;;;4898631;29;20486;-70
2022/08/21 07:08:56;;;;;;;7.57;1.52;;;18.30;78.30;;;;;;4898881;29;20029;-69
2022/08/21 07:11:25;;;;;;;6.13;1.90;;;18.10;79.40;;;;;;4898920;29;20355;-71
2022/08/21 07:13:54;;;;;;;7.70;1.58;;;18.00;80.20;;;;;;4898374;29;20025;-71
2022/08/21 07:16:23;;;;;;;6.97;1.50;;;17.80;80.80;;;;;;4898368;29;20028;-72
2022/08/21 07:18:50;;;;;;;6.03;1.40;;;17.60;81.50;;;;;;4897225;29;20636;-73
2022/08/21 07:21:18;;;;;;;1.85;0.90;;;17.50;82.40;;;;;;4898680;29;20115;-73
2022/08/21 07:23:49;;;;;;;7.78;2.08;;;17.30;82.90;;;;;;4897783;29;20119;-69
2022/08/21 07:26:20;;;;;;;7.40;1.80;;;17.20;83.70;;;;;;4894104;29;20033;-69
2022/08/21 07:28:49;;;;;;;6.82;1.70;;;17.20;83.90;;;;;;4896975;29;20505;-69
2022/08/21 07:31:18;;;;;;;6.72;2.13;;;17.10;84.10;;;;;;4898348;29;20489;-68
2022/08/21 07:33:46;;;;;;;6.15;1.33;;;16.90;84.20;;;;;;4897932;29;20021;-69
2022/08/21 07:36:13;;;;;;;7.72;1.60;;;16.80;85.10;;;;;;4897781;29;20036;-71
2022/08/21 07:38:40;;;;;;;7.15;2.22;;;16.70;85.60;;;;;;4887071;29;20478;-71
2022/08/21 07:41:22;;;;;;;6.65;1.65;;;16.70;85.60;;;;;;4896336;29;20024;-71
2022/08/21 07:43:49;;;;;;;4.82;1.60;;;16.60;85.90;;;;;;4892624;29;20035;-72
2022/08/21 07:46:16;;;;;;;6.28;1.10;;;16.60;86.20;;;;;;4884519;29;20040;-73
2022/08/21 07:48:44;;;;;;;7.50;1.63;;;16.50;86.50;;;;;;4895139;29;20036;-72
2022/08/21 07:51:14;;;;;;;6.20;1.45;;;16.40;86.60;;;;;;4894680;29;20056;-74
2022/08/21 07:53:42;;;;;;;6.50;1.73;;;16.40;87.20;;;;;;4892902;29;20122;-75
2022/08/21 07:56:10;;;;;;;7.18;1.92;;;16.40;87.60;;;;;;4894520;29;20040;-71
2022/08/21 07:58:38;;;;;;;7.22;1.52;;;16.30;87.50;;;;;;4895137;29;20583;-70
2022/08/21 08:01:07;;;;;;;5.63;1.48;;;16.20;87.90;;;;;;4896942;29;20048;-69
2022/08/21 08:03:35;;;;;;;5.93;1.60;;;16.20;88.00;;;;;;4896645;29;20072;-76
2022/08/21 08:06:04;;;;;;;3.47;1.55;;;16.10;88.80;;;;;;4895838;29;20021;-75
2022/08/21 08:08:32;;;;;;;7.75;1.88;;;16.00;89.20;;;;;;4895329;29;20044;-69
2022/08/21 08:11:00;;;;;;;5.18;2.33;;;16.00;89.40;;;;;;4896419;29;20029;-71
2022/08/21 08:13:27;;;;;;;8.05;3.35;;;15.90;89.60;;;;;;4896375;29;20025;-70
2022/08/21 08:15:54;;;;;;;7.70;2.42;;;15.80;89.90;;;;;;4895189;29;20033;-71
2022/08/21 08:18:22;;;;;;;8.93;1.60;;;15.80;90.10;;;;;;4896137;29;20031;-76
2022/08/21 08:20:49;;;;;;;7.15;1.55;;;15.70;90.20;;;;;;4896034;29;20052;-72
2022/08/21 08:23:16;;;;;;;4.57;1.90;;;15.80;90.30;;;;;;4895966;29;20179;-72
2022/08/21 08:25:44;;;;;;;5.88;1.60;;;15.80;90.40;;;;;;4895343;29;20020;-72
2022/08/21 08:28:11;;;;;;;5.47;2.58;;;15.70;90.70;;;;;;4895773;29;20029;-75
2022/08/21 08:30:39;;;;;;;4.18;1.65;;;15.70;90.50;;;;;;4896143;29;20232;-73
2022/08/21 08:33:06;;;;;;;7.50;2.35;;;15.70;90.60;;;;;;4895927;29;20027;-72
2022/08/21 08:35:34;;;;;;;7.55;3.17;;;15.70;90.70;;;;;;4894307;29;20036;-76
2022/08/21 08:38:01;;;;;;;7.63;2.22;;;15.70;90.70;;;;;;4894780;29;20058;-74
2022/08/21 08:40:52;;;;;;;5.57;2.53;;;15.70;90.90;;;;;;4895523;29;20033;-74
2022/08/21 08:43:20;;;;;;;6.18;2.30;;;15.60;91.00;;;;;;4895591;29;20025;-80
2022/08/21 08:45:53;;;;;;;9.02;2.83;;;15.70;91.10;;;;;;4895325;29;20111;-73
2022/08/21 08:48:54;;;;;;;8.98;3.08;;;15.60;91.30;;;;;;4894786;29;20029;-72
2022/08/21 08:51:47;;;;;;;9.88;3.03;;;15.50;91.50;;;;;;4894993;29;20116;-71
2022/08/21 08:54:26;;;;;;;8.23;2.17;;;15.40;91.70;;;;;;4895336;29;20031;-72
2022/08/21 08:56:55;;;;;;;7.03;2.58;;;15.40;91.90;;;;;;4894654;29;20079;-72
2022/08/21 08:59:30;;;;;;;7.00;2.33;;;15.40;92.10;;;;;;4895378;29;20461;-72
2022/08/21 09:01:57;;;;;;;9.38;3.10;;;15.40;92.10;;;;;;4895759;29;20036;-71
2022/08/21 09:04:28;;;;;;;8.27;2.03;;;15.40;92.20;;;;;;4895623;29;20089;-70
2022/08/21 09:07:11;;;;;;;8.80;2.60;;;15.20;92.40;;;;;;4895468;29;20025;-73
2022/08/21 09:09:41;;;;;;;6.88;2.60;;;15.20;92.60;;;;;;4894905;29;20044;-70
2022/08/21 09:12:35;;;;;;;11.32;2.55;;;15.20;92.60;;;;;;4895033;29;20115;-69
2022/08/21 09:15:13;;;;;;;10.98;3.03;;;15.10;92.80;;;;;;4894596;29;20084;-72
2022/08/21 09:18:07;;;;;;;7.82;2.83;;;15.20;92.80;;;;;;4893695;29;20557;-71
2022/08/21 09:20:55;;;;;;;5.85;2.40;;;15.20;92.70;;;;;;4895237;29;20080;-72
2022/08/21 09:23:48;;;;;;;8.82;2.25;;;15.10;92.50;;;;;;4894887;29;20063;-68
2022/08/21 09:26:16;;;;;;;;;;;15.10;92.70;;;;;;4889350;29;20119;-73
2022/08/21 09:28:45;;;;;;;8.18;2.60;;;15.00;92.70;;;;;;4894661;29;19914;-69
2022/08/21 09:31:23;;;;;;;8.20;1.90;;;15.00;92.70;;;;;;4894530;29;20028;-69
2022/08/21 09:33:56;;;;;;;6.28;1.80;;;14.90;92.60;;;;;;4895278;29;20095;-69
2022/08/21 09:36:34;;;;;;;22.08;10.18;;;15.00;92.80;;;;;;4894471;29;20453;-69
2022/08/21 09:39:01;;;;;;;14.27;2.90;;;15.00;92.90;;;;;;4895011;29;20080;-69
2022/08/21 09:41:32;;;;;;;7.82;2.15;;;14.90;93.00;;;;;;4894030;29;20490;-71
2022/08/21 09:43:59;;;;;;;9.43;2.13;;;14.90;92.90;;;;;;4892549;29;20028;-70
2022/08/21 09:46:28;;;;;;;7.70;2.35;;;14.80;93.10;;;;;;4894763;29;20116;-69
2022/08/21 09:48:59;;;;;;;6.90;2.08;;;14.90;93.10;;;;;;4895069;29;20486;-72
2022/08/21 09:51:35;;;;;;;8.93;2.88;;;14.80;93.40;;;;;;4894859;29;20046;-66
2022/08/21 09:54:09;;;;;;;3.75;2.00;;;14.80;93.30;;;;;;4894950;29;20490;-69
2022/08/21 10:00:33;;;;;;;5.45;2.00;;;14.70;93.50;;;;;;4928922;29;20067;-74
2022/08/21 10:03:16;;;;;;;4.22;1.98;;;14.60;93.70;;;;;;4925541;29;20044;-67
2022/08/21 10:05:58;;;;;;;8.13;2.03;;;14.60;93.70;;;;;;4906297;29;20043;-70
2022/08/21 10:08:27;;;;;;;4.70;1.48;;;14.60;93.80;;;;;;4897032;29;20141;-71
2022/08/21 10:11:16;;;;;;;10.10;2.33;;;14.60;93.90;;;;;;4899247;29;20025;-69
2022/08/21 10:13:55;;;;;;;7.10;1.83;;;14.60;93.90;;;;;;4899415;29;20056;-69
2022/08/21 10:16:38;;;;;;;8.88;3.10;;;14.60;94.10;;;;;;4898453;29;20052;-69
2022/08/21 10:19:20;;;;;;;9.48;2.60;;;14.60;94.20;;;;;;4899035;29;20040;-67
2022/08/21 10:22:09;;;;;;;7.38;1.88;;;14.60;94.30;;;;;;4899326;29;20552;-68
2022/08/21 10:25:02;;;;;;;6.30;2.15;;;14.60;94.40;;;;;;4898898;29;20032;-69
2022/08/21 10:27:45;;;;;;;;;;;14.50;94.50;;;;;;4898973;29;20032;-67
2022/08/21 10:30:40;;;;;;;7.80;1.77;;;14.50;94.90;;;;;;4897273;29;20038;-66
2022/08/21 10:33:28;;;;;;;10.20;1.73;;;14.50;94.60;;;;;;4896901;29;20121;-71
2022/08/21 10:36:09;;;;;;;7.70;1.90;;;14.50;94.70;;;;;;4897424;29;20512;-66
2022/08/21 10:39:07;;;;;;;10.15;2.45;;;14.40;94.70;;;;;;4897301;29;20080;-67
2022/08/21 10:42:01;;;;;;;8.50;2.28;;;14.40;94.80;;;;;;4884445;29;20040;-65
2022/08/21 10:44:41;;;;;;;7.25;1.85;;;14.40;94.90;;;;;;4898388;29;20021;-66
2022/08/21 10:47:29;;;;;;;5.85;2.78;;;14.30;95.00;;;;;;4898477;29;20040;-67
2022/08/21 10:50:11;;;;;;;8.57;2.15;;;14.40;95.10;;;;;;4897466;29;20494;-65
2022/08/21 10:53:03;;;;;;;5.68;1.90;;;14.30;94.90;;;;;;4898789;29;20028;-67
2022/08/21 10:55:41;;;;;;;6.47;2.03;;;14.30;95.10;;;;;;4898095;29;20032;-68
2022/08/21 10:58:32;;;;;;;7.07;2.03;;;14.30;95.10;;;;;;4897894;29;20545;-66
2022/08/21 11:01:10;;;;;;;11.18;2.78;;;14.30;95.30;;;;;;4896380;29;20087;-66
2022/08/21 11:03:44;;;;;;;5.38;2.47;;;14.30;95.60;;;;;;4898123;29;20021;-70
2022/08/21 11:06:19;;;;;;;9.05;2.22;;;14.30;95.30;;;;;;4897901;29;20071;-71
2022/08/21 11:08:51;;;;;;;7.03;3.10;;;14.20;95.30;;;;;;4898290;29;20389;-70
2022/08/21 11:11:32;;;;;;;7.00;2.15;;;14.20;95.40;;;;;;4897824;29;20032;-71
2022/08/21 11:14:02;;;;;;;10.27;3.13;;;14.20;95.40;;;;;;4897080;29;20028;-68
2022/08/21 11:17:12;;;;;;;6.35;2.53;;;14.10;95.50;;;;;;4897673;29;20561;-71
2022/08/21 11:19:54;;;;;;;7.40;2.40;;;14.10;95.40;;;;;;4896765;29;20055;-67
2022/08/21 11:22:34;;;;;;;5.22;1.65;;;14.10;95.40;;;;;;4896917;29;20028;-66
2022/08/21 11:25:33;;;;;;;6.10;1.50;;;14.00;95.40;;;;;;4897497;29;20029;-66
2022/08/21 11:28:29;;;;;;;5.13;1.95;;;14.10;95.60;;;;;;4896523;29;20028;-66
2022/08/21 11:31:15;;;;;;;8.40;1.85;;;14.00;95.80;;;;;;4896762;29;20032;-68
2022/08/21 11:33:51;;;;;;;6.10;3.05;;;14.00;95.80;;;;;;4897682;29;20033;-66
2022/08/21 11:36:41;;;;;;;7.50;1.52;;;14.00;95.80;;;;;;4897131;29;20452;-66
2022/08/21 11:39:16;;;;;;;5.07;1.98;;;14.00;95.90;;;;;;4897476;29;20033;-69
2022/08/21 11:42:22;;;;;;;7.22;1.50;;;13.90;96.00;;;;;;4896938;29;20096;-67
2022/08/21 11:45:03;;;;;;;10.18;1.75;;;13.90;96.10;;;;;;4897836;29;20024;-67
2022/08/21 11:47:53;;;;;;;5.70;1.60;;;13.90;96.00;;;;;;4896790;29;20037;-71
2022/08/21 11:50:31;;;;;;;4.53;1.83;;;13.90;96.10;;;;;;4897240;29;20029;-68
2022/08/21 11:53:13;;;;;;;4.70;1.98;;;13.90;96.10;;;;;;4897512;29;20024;-66
2022/08/21 11:56:02;;;;;;;7.20;1.42;;;13.90;96.10;;;;;;4897589;29;20033;-68
2022/08/21 11:58:32;;;;;;;7.82;2.38;;;13.80;96.20;;;;;;4896980;29;20634;-68
2022/08/21 12:01:11;;;;;;;10.52;2.67;;;13.90;96.40;;;;;;4897036;29;20485;-68
2022/08/21 12:03:51;;;;;;;8.32;2.85;;;13.90;96.80;;;;;;4895653;29;20032;-68
2022/08/21 12:06:30;;;;;;;6.93;1.70;;;13.80;96.50;;;;;;4896026;29;20581;-68
2022/08/21 12:09:02;;;;;;;5.60;1.20;;;13.80;96.60;;;;;;4910224;29;20031;-68
2022/08/21 12:11:29;;;;;;;6.07;1.83;;;13.80;96.70;;;;;;4894374;29;20024;-68
2022/08/21 12:13:59;;;;;;;9.90;2.13;;;13.80;96.70;;;;;;4895353;29;20103;-69
2022/08/21 12:16:33;;;;;;;5.93;1.95;;;13.80;96.80;;;;;;4895247;29;20066;-67
2022/08/21 12:19:13;;;;;;;6.43;1.60;;;13.70;96.80;;;;;;4893949;29;20024;-68
2022/08/21 12:21:59;;;;;;;6.15;1.70;;;13.70;97.00;;;;;;4895857;29;20029;-66
2022/08/21 12:24:38;;;;;;;3.85;1.38;;;13.70;97.10;;;;;;4893772;29;20046;-70
2022/08/21 12:27:21;;;;;;;6.45;1.70;;;13.70;97.20;;;;;;4893377;29;20032;-69
2022/08/21 12:29:54;;;;;;;7.80;2.58;;;13.70;97.30;;;;;;4893774;29;20032;-71
2022/08/21 12:32:30;;;;;;;9.75;2.60;;;13.60;97.40;;;;;;4894582;29;20180;-71
2022/08/21 12:35:19;;;;;;;6.93;2.42;;;13.50;97.60;;;;;;4895116;29;20024;-66
2022/08/21 12:38:02;;;;;;;7.97;2.15;;;13.50;97.80;;;;;;4894055;29;20515;-69
2022/08/21 12:41:02;;;;;;;8.32;1.63;;;13.40;98.00;;;;;;4893456;29;20033;-67
2022/08/21 12:43:43;;;;;;;7.15;2.40;;;13.40;98.20;;;;;;4893515;29;20044;-73
2022/08/21 12:46:23;;;;;;;5.80;2.58;;;13.40;98.20;;;;;;4894005;29;20481;-67
2022/08/21 12:49:00;;;;;;;5.57;1.77;;;13.30;98.20;;;;;;4894502;29;20389;-67
2022/08/21 12:51:33;;;;;;;4.75;1.50;;;13.30;98.20;;;;;;4894989;29;20477;-67
2022/08/21 12:54:01;;;;;;;5.65;1.60;;;13.30;98.30;;;;;;4892920;29;20036;-66
2022/08/21 12:56:31;;;;;;;6.03;2.03;;;13.20;98.30;;;;;;4895343;29;20039;-69
2022/08/21 12:59:03;;;;;;;7.57;2.15;;;13.20;98.50;;;;;;4892668;29;20044;-67
2022/08/21 13:01:36;;;;;;;7.05;1.92;;;13.10;98.60;;;;;;4893711;29;20493;-68
2022/08/21 13:04:33;;;;;;;7.97;1.63;;;13.20;98.80;;;;;;4893137;29;20370;-67
2022/08/21 13:07:01;;;;;;;3.72;1.52;;;13.10;99.00;;;;;;4890165;29;20037;-71
2022/08/21 13:09:30;;;;;;;7.68;2.05;;;13.00;99.00;;;;;;4894729;29;20055;-72
2022/08/21 13:11:59;;;;;;;4.75;2.00;;;13.00;99.10;;;;;;4894672;29;20414;-68
2022/08/21 13:14:39;;;;;;;5.32;1.80;;;13.00;99.20;;;;;;4894967;29;20047;-69
2022/08/21 13:17:08;;;;;;;6.00;2.63;;;12.90;99.30;;;;;;4893407;29;20079;-67
2022/08/21 13:19:35;;;;;;;6.85;2.45;;;12.90;99.30;;;;;;4892922;29;20025;-71